Time;durP1;ratioP1;P1;durP2;ratioP2;P2;SDS_P1;SDS_P2;PMS_P1;PMS_P2;Temp;Humidity;BMP_temperature;BMP_pressure;BME280_temperature;BME280_humidity;BME280_pressure;Samples;Min_cycle;Max_cycle;Signal;HPM_P1;HPM_P2
2023/06/23 00:01:14;;;;;;;;;9.00;9.00;;;;;;;;5080705;28;46301;-73
2023/06/23 00:03:40;;;;;;;;;10.67;10.33;;;;;;;;5080689;28;45337;-73
2023/06/23 00:06:06;;;;;;;;;9.00;8.00;;;;;;;;5080889;28;45317;-74
2023/06/23 00:08:31;;;;;;;;;14.00;12.67;;;;;;;;5079636;28;45589;-73
2023/06/23 00:10:57;;;;;;;;;12.33;11.00;;;;;;;;5062642;28;47808;-74
2023/06/23 00:13:22;;;;;;;;;11.00;10.33;;;;;;;;5079448;28;45342;-73
2023/06/23 00:15:47;;;;;;;;;11.00;11.00;;;;;;;;5080217;28;45199;-73
2023/06/23 00:18:13;;;;;;;;;10.00;9.67;;;;;;;;5079621;28;45526;-73
2023/06/23 00:20:38;;;;;;;;;10.67;8.67;;;;;;;;5063218;28;47304;-73
2023/06/23 00:23:03;;;;;;;;;11.00;11.00;;;;;;;;5080780;28;45352;-74
2023/06/23 00:25:28;;;;;;;;;11.33;10.67;;;;;;;;5080135;28;45313;-73
2023/06/23 00:27:54;;;;;;;;;11.33;11.33;;;;;;;;5062684;28;45465;-73
2023/06/23 00:30:19;;;;;;;;;11.00;11.00;;;;;;;;5079364;27;47303;-73
2023/06/23 00:32:44;;;;;;;;;12.00;12.00;;;;;;;;5100330;27;45131;-73
2023/06/23 00:35:09;;;;;;;;;11.00;10.67;;;;;;;;5100070;27;45260;-73
2023/06/23 00:37:38;;;;;;;;;11.00;11.00;;;;;;;;5102230;27;45362;-74
2023/06/23 00:40:13;;;;;;;;;12.33;12.33;;;;;;;;5081287;27;47512;-73
2023/06/23 00:42:42;;;;;;;;;14.00;13.00;;;;;;;;5099157;27;45313;-73
2023/06/23 00:45:07;;;;;;;;;13.33;12.33;;;;;;;;5065726;27;45220;-74
2023/06/23 00:47:33;;;;;;;;;13.00;11.67;;;;;;;;5100216;27;45982;-74
2023/06/23 00:49:58;;;;;;;;;10.00;10.00;;;;;;;;5082484;27;47334;-74
2023/06/23 00:52:24;;;;;;;;;12.00;10.67;;;;;;;;5100635;27;45360;-73
2023/06/23 00:54:50;;;;;;;;;12.67;12.33;;;;;;;;5101294;27;45225;-73
2023/06/23 00:57:16;;;;;;;;;11.00;10.00;;;;;;;;5103874;27;45328;-74
2023/06/23 00:59:41;;;;;;;;;10.00;10.00;;;;;;;;5104662;27;45529;-73
2023/06/23 01:02:06;;;;;;;;;11.00;11.00;;;;;;;;5106099;27;45367;-74
2023/06/23 01:04:32;;;;;;;;;12.67;12.67;;;;;;;;5086447;27;45573;-73
2023/06/23 01:07:16;;;;;;;;;11.33;10.33;;;;;;;;5085273;27;47528;-73
2023/06/23 01:09:44;;;;;;;;;12.67;12.00;;;;;;;;5102782;27;45502;-74
2023/06/23 01:12:22;;;;;;;;;12.00;11.00;;;;;;;;5085333;27;45409;-74
2023/06/23 01:15:05;;;;;;;;;9.00;9.00;;;;;;;;5083282;27;45316;-73
2023/06/23 01:17:39;;;;;;;;;9.00;9.00;;;;;;;;5104014;27;45271;-73
2023/06/23 01:20:21;;;;;;;;;10.67;10.33;;;;;;;;5104231;27;45386;-73
2023/06/23 01:23:05;;;;;;;;;14.67;14.00;;;;;;;;5085811;27;45093;-73
2023/06/23 01:25:49;;;;;;;;;10.67;10.67;;;;;;;;5102704;27;45485;-74
2023/06/23 01:28:17;;;;;;;;;10.67;10.67;;;;;;;;5102652;27;45478;-73
2023/06/23 01:30:44;;;;;;;;;11.33;11.00;;;;;;;;5062918;28;46349;-74
2023/06/23 01:33:15;;;;;;;;;10.67;10.00;;;;;;;;5063285;28;45247;-73
2023/06/23 01:35:44;;;;;;;;;13.00;12.67;;;;;;;;5063777;28;45383;-74
2023/06/23 01:38:27;;;;;;;;;12.00;11.33;;;;;;;;5045423;28;45491;-73
2023/06/23 01:40:54;;;;;;;;;11.00;10.33;;;;;;;;5061280;28;46154;-73
2023/06/23 01:43:29;;;;;;;;;14.00;13.00;;;;;;;;5061405;28;45375;-73
2023/06/23 01:46:09;;;;;;;;;15.67;13.00;;;;;;;;5063496;28;45322;-74
2023/06/23 01:48:36;;;;;;;;;11.33;10.00;;;;;;;;5061516;28;45411;-73
2023/06/23 01:51:03;;;;;;;;;12.00;11.33;;;;;;;;5061810;28;45423;-73
2023/06/23 01:53:30;;;;;;;;;12.00;12.00;;;;;;;;5045196;28;45370;-74
2023/06/23 01:55:56;;;;;;;;;13.33;13.00;;;;;;;;5045348;28;45255;-74
2023/06/23 01:58:22;;;;;;;;;13.00;13.00;;;;;;;;5045196;28;46042;-73
2023/06/23 02:00:49;;;;;;;;;12.67;11.00;;;;;;;;5063222;28;45355;-74
2023/06/23 02:03:14;;;;;;;;;13.00;12.00;;;;;;;;5062245;28;45327;-73
2023/06/23 02:05:40;;;;;;;;;14.33;14.00;;;;;;;;5044144;28;45249;-73
2023/06/23 02:08:06;;;;;;;;;14.67;11.67;;;;;;;;5060773;28;45503;-73
2023/06/23 02:10:32;;;;;;;;;12.67;12.67;;;;;;;;5060995;28;46187;-73
2023/06/23 02:12:57;;;;;;;;;12.33;11.33;;;;;;;;5062994;28;45314;-74
2023/06/23 02:15:23;;;;;;;;;13.33;11.00;;;;;;;;5061442;28;45271;-73
2023/06/23 02:17:49;;;;;;;;;10.33;10.33;;;;;;;;5044686;28;45859;-73
2023/06/23 02:20:16;;;;;;;;;16.67;15.00;;;;;;;;5062568;28;45311;-74
2023/06/23 02:22:43;;;;;;;;;14.33;13.33;;;;;;;;5061052;28;45134;-74
2023/06/23 02:25:10;;;;;;;;;14.33;12.33;;;;;;;;5042839;28;45190;-72
2023/06/23 02:27:35;;;;;;;;;16.67;15.33;;;;;;;;5043531;28;46588;-74
2023/06/23 02:30:01;;;;;;;;;10.67;10.67;;;;;;;;5073145;27;48407;-73
2023/06/23 02:32:26;;;;;;;;;14.33;14.33;;;;;;;;5101566;27;45792;-73
2023/06/23 02:34:51;;;;;;;;;13.00;13.00;;;;;;;;5103081;27;45899;-73
2023/06/23 02:37:22;;;;;;;;;13.00;13.00;;;;;;;;5101908;27;45459;-73
2023/06/23 02:39:51;;;;;;;;;14.67;14.00;;;;;;;;5101436;27;45901;-73
2023/06/23 02:42:19;;;;;;;;;14.00;14.00;;;;;;;;5082945;27;45347;-74
2023/06/23 02:44:54;;;;;;;;;12.33;12.00;;;;;;;;5085216;27;45310;-74
2023/06/23 02:47:21;;;;;;;;;14.33;14.00;;;;;;;;5084729;27;45327;-74
2023/06/23 02:49:48;;;;;;;;;12.00;12.00;;;;;;;;5102392;27;45279;-73
2023/06/23 02:52:15;;;;;;;;;13.00;13.00;;;;;;;;5102425;27;45342;-74
2023/06/23 02:54:43;;;;;;;;;14.00;12.67;;;;;;;;5102707;27;45324;-73
2023/06/23 02:57:12;;;;;;;;;17.00;17.00;;;;;;;;5102476;27;45356;-74
2023/06/23 02:59:39;;;;;;;;;13.33;13.33;;;;;;;;5102194;27;46258;-73
2023/06/23 03:02:07;;;;;;;;;11.67;11.00;;;;;;;;5101684;27;45349;-73
2023/06/23 03:04:34;;;;;;;;;15.00;14.00;;;;;;;;5102989;27;45307;-73
2023/06/23 03:06:59;;;;;;;;;15.33;13.67;;;;;;;;5100897;27;45801;-74
2023/06/23 03:09:26;;;;;;;;;12.67;12.00;;;;;;;;5101075;27;45329;-73
2023/06/23 03:11:51;;;;;;;;;13.67;13.00;;;;;;;;5083550;27;46052;-74
2023/06/23 03:14:16;;;;;;;;;9.33;9.33;;;;;;;;5101883;27;45270;-74
2023/06/23 03:16:46;;;;;;;;;14.00;13.00;;;;;;;;5101845;27;45425;-73
2023/06/23 03:19:18;;;;;;;;;12.33;12.00;;;;;;;;5100119;27;46323;-72
2023/06/23 03:21:45;;;;;;;;;14.33;12.67;;;;;;;;5083562;27;45304;-73
2023/06/23 03:24:12;;;;;;;;;12.33;12.33;;;;;;;;5102063;27;45285;-73
2023/06/23 03:26:40;;;;;;;;;11.67;11.67;;;;;;;;5100977;27;45514;-73
2023/06/23 03:29:06;;;;;;;;;12.00;11.00;;;;;;;;5094454;27;45330;-73
2023/06/23 03:31:35;;;;;;;;;14.00;13.67;;;;;;;;5080516;28;45212;-73
2023/06/23 03:34:01;;;;;;;;;16.33;15.33;;;;;;;;5062705;28;45335;-73
2023/06/23 03:36:27;;;;;;;;;13.33;13.33;;;;;;;;5080321;28;45381;-74
2023/06/23 03:38:58;;;;;;;;;14.67;14.00;;;;;;;;5080160;28;45272;-74
2023/06/23 03:41:25;;;;;;;;;15.33;13.67;;;;;;;;5070722;28;45335;-74
2023/06/23 03:43:52;;;;;;;;;14.67;14.67;;;;;;;;5059511;28;45216;-73
2023/06/23 03:46:20;;;;;;;;;13.33;12.33;;;;;;;;5059453;28;45268;-72
2023/06/23 03:48:46;;;;;;;;;12.33;12.33;;;;;;;;5058793;28;45349;-73
2023/06/23 03:51:13;;;;;;;;;13.00;13.00;;;;;;;;5059733;28;45241;-73
2023/06/23 03:53:39;;;;;;;;;17.67;16.33;;;;;;;;5059547;28;45367;-73
2023/06/23 03:56:05;;;;;;;;;13.33;13.33;;;;;;;;5059660;28;45457;-73
2023/06/23 03:58:31;;;;;;;;;13.67;12.67;;;;;;;;5041381;28;48237;-73
2023/06/23 04:00:57;;;;;;;;;16.33;14.33;;;;;;;;5059319;28;45433;-74
2023/06/23 04:03:23;;;;;;;;;14.00;12.67;;;;;;;;5059610;28;45266;-73
2023/06/23 04:05:48;;;;;;;;;14.67;14.67;;;;;;;;5058048;28;45349;-73
2023/06/23 04:08:14;;;;;;;;;16.33;15.67;;;;;;;;5059502;28;45315;-73
2023/06/23 04:10:40;;;;;;;;;19.00;19.00;;;;;;;;5041189;28;45371;-72
2023/06/23 04:13:06;;;;;;;;;15.67;15.33;;;;;;;;5059673;28;45279;-73
2023/06/23 04:15:33;;;;;;;;;16.33;16.00;;;;;;;;5059450;28;45225;-73
2023/06/23 04:17:58;;;;;;;;;19.33;17.67;;;;;;;;5059336;28;46395;-73
2023/06/23 04:20:25;;;;;;;;;14.33;14.33;;;;;;;;5059294;28;45378;-73
2023/06/23 04:22:51;;;;;;;;;18.67;15.00;;;;;;;;5059624;28;45242;-73
2023/06/23 04:25:18;;;;;;;;;15.33;15.33;;;;;;;;5059165;28;45310;-72
2023/06/23 04:27:45;;;;;;;;;19.00;18.33;;;;;;;;5059157;28;45457;-72
2023/06/23 04:30:12;;;;;;;;;20.33;18.00;;;;;;;;5091764;27;45468;-72
2023/06/23 04:32:38;;;;;;;;;14.33;13.33;;;;;;;;5103637;27;45362;-73
2023/06/23 04:35:04;;;;;;;;;13.67;13.67;;;;;;;;5103441;27;45349;-73
2023/06/23 04:37:31;;;;;;;;;17.00;17.00;;;;;;;;5103342;27;45790;-73
2023/06/23 04:39:58;;;;;;;;;18.00;17.67;;;;;;;;5085081;27;45412;-73
2023/06/23 04:42:29;;;;;;;;;11.67;11.67;;;;;;;;5103256;27;45415;-73
2023/06/23 04:44:56;;;;;;;;;14.00;13.33;;;;;;;;5085029;27;47241;-72
2023/06/23 04:47:22;;;;;;;;;17.33;17.00;;;;;;;;5103314;27;45398;-73
2023/06/23 04:49:52;;;;;;;;;16.33;16.33;;;;;;;;5103261;27;45296;-73
2023/06/23 04:52:18;;;;;;;;;17.67;17.67;;;;;;;;5084648;27;45354;-72
2023/06/23 04:54:44;;;;;;;;;16.67;16.67;;;;;;;;5102916;27;45362;-72
2023/06/23 04:57:12;;;;;;;;;18.33;17.67;;;;;;;;5103139;27;45290;-73
2023/06/23 04:59:39;;;;;;;;;16.00;16.00;;;;;;;;5103216;27;45321;-73
2023/06/23 05:02:06;;;;;;;;;27.33;27.33;;;;;;;;5103315;27;45215;-73
2023/06/23 05:04:33;;;;;;;;;24.00;23.67;;;;;;;;5084557;27;46108;-73
2023/06/23 05:06:59;;;;;;;;;24.67;22.33;;;;;;;;5084368;27;47790;-73
2023/06/23 05:09:25;;;;;;;;;19.67;19.33;;;;;;;;5102868;27;45335;-73
2023/06/23 05:11:52;;;;;;;;;23.33;21.67;;;;;;;;5102998;27;45329;-73
2023/06/23 05:14:19;;;;;;;;;21.33;20.33;;;;;;;;5084411;27;46567;-73
2023/06/23 05:16:44;;;;;;;;;21.00;21.00;;;;;;;;5102802;27;46411;-72
2023/06/23 05:19:10;;;;;;;;;20.00;20.00;;;;;;;;5102979;27;45285;-71
2023/06/23 05:21:36;;;;;;;;;17.67;17.67;;;;;;;;5084356;27;45401;-71
2023/06/23 05:24:04;;;;;;;;;20.33;19.33;;;;;;;;5102604;27;45285;-71
2023/06/23 05:26:33;;;;;;;;;19.00;18.67;;;;;;;;5102672;27;45261;-72
2023/06/23 05:29:00;;;;;;;;;20.67;19.00;;;;;;;;5096585;27;45321;-72
2023/06/23 05:31:27;;;;;;;;;23.00;20.33;;;;;;;;5082006;28;45231;-71
2023/06/23 05:33:55;;;;;;;;;20.33;20.33;;;;;;;;5081986;28;45237;-71
2023/06/23 05:36:21;;;;;;;;;18.00;15.67;;;;;;;;5081915;28;45374;-72
2023/06/23 05:38:46;;;;;;;;;20.00;18.33;;;;;;;;5081743;28;45405;-72
2023/06/23 05:41:12;;;;;;;;;19.67;19.33;;;;;;;;5081711;28;45315;-72
2023/06/23 05:43:38;;;;;;;;;19.67;19.00;;;;;;;;5081197;28;45236;-72
2023/06/23 05:46:06;;;;;;;;;20.00;17.33;;;;;;;;5063605;28;47338;-72
2023/06/23 05:48:36;;;;;;;;;17.33;16.67;;;;;;;;5081347;28;45262;-72
2023/06/23 05:51:05;;;;;;;;;22.00;19.33;;;;;;;;5081823;28;45300;-72
2023/06/23 05:53:31;;;;;;;;;19.33;17.67;;;;;;;;5062979;28;46311;-72
2023/06/23 05:55:59;;;;;;;;;19.33;18.00;;;;;;;;5070192;28;45731;-72
2023/06/23 05:58:29;;;;;;;;;17.33;17.33;;;;;;;;5049414;28;45459;-74
2023/06/23 06:00:56;;;;;;;;;20.00;19.67;;;;;;;;5074540;28;45414;-72
2023/06/23 06:03:27;;;;;;;;;24.67;22.00;;;;;;;;5077072;28;45445;-72
2023/06/23 06:05:55;;;;;;;;;20.67;19.67;;;;;;;;5059122;28;47112;-72
2023/06/23 06:08:21;;;;;;;;;22.33;22.33;;;;;;;;5058112;28;45919;-73
2023/06/23 06:10:47;;;;;;;;;16.00;15.00;;;;;;;;5077514;28;46398;-72
2023/06/23 06:13:14;;;;;;;;;18.33;18.33;;;;;;;;5058400;28;45654;-74
2023/06/23 06:15:39;;;;;;;;;20.00;19.33;;;;;;;;5058977;28;47256;-73
2023/06/23 06:18:06;;;;;;;;;23.00;19.33;;;;;;;;5059092;28;45366;-73
2023/06/23 06:20:32;;;;;;;;;21.00;21.00;;;;;;;;5078198;28;45522;-73
2023/06/23 06:22:58;;;;;;;;;19.33;19.33;;;;;;;;5078238;28;45504;-72
2023/06/23 06:25:25;;;;;;;;;17.67;16.33;;;;;;;;5059116;28;46630;-73
2023/06/23 06:27:51;;;;;;;;;20.33;17.33;;;;;;;;5078157;28;45276;-72
2023/06/23 06:30:17;;;;;;;;;17.33;16.67;;;;;;;;5077701;28;46343;-73
2023/06/23 06:32:43;;;;;;;;;19.67;18.67;;;;;;;;5077774;28;45426;-72
2023/06/23 06:35:10;;;;;;;;;20.67;19.00;;;;;;;;5077496;28;45451;-72
2023/06/23 06:37:41;;;;;;;;;18.33;16.67;;;;;;;;5059783;28;45939;-73
2023/06/23 06:40:08;;;;;;;;;25.00;20.00;;;;;;;;5078268;28;45434;-72
2023/06/23 06:42:34;;;;;;;;;23.33;23.33;;;;;;;;5059072;28;47098;-73
2023/06/23 06:44:59;;;;;;;;;21.00;18.00;;;;;;;;5077565;28;46073;-72
2023/06/23 06:47:25;;;;;;;;;19.67;19.67;;;;;;;;5077586;28;45370;-72
2023/06/23 06:49:51;;;;;;;;;12.67;12.33;;;;;;;;5077747;28;45438;-73
2023/06/23 06:52:17;;;;;;;;;16.33;16.33;;;;;;;;5058987;28;46099;-73
2023/06/23 06:54:43;;;;;;;;;17.33;17.33;;;;;;;;5077104;28;46142;-73
2023/06/23 06:57:08;;;;;;;;;20.33;19.67;;;;;;;;5077402;28;45291;-73
2023/06/23 06:59:33;;;;;;;;;16.67;15.00;;;;;;;;5059224;28;45344;-73
2023/06/23 07:01:59;;;;;;;;;19.33;19.33;;;;;;;;5078204;28;45305;-73
2023/06/23 07:04:24;;;;;;;;;20.00;19.33;;;;;;;;5058993;28;47072;-73
2023/06/23 07:06:53;;;;;;;;;21.67;21.00;;;;;;;;5077200;28;45466;-72
2023/06/23 07:09:18;;;;;;;;;22.00;21.00;;;;;;;;5058228;28;45404;-72
2023/06/23 07:11:46;;;;;;;;;21.00;18.67;;;;;;;;5077341;28;45596;-72
2023/06/23 07:14:11;;;;;;;;;17.67;17.67;;;;;;;;5076870;28;45507;-72
2023/06/23 07:16:36;;;;;;;;;17.33;16.33;;;;;;;;5070437;28;45489;-72
2023/06/23 07:19:01;;;;;;;;;13.00;12.67;;;;;;;;5076836;28;45512;-73
2023/06/23 07:21:27;;;;;;;;;19.67;16.67;;;;;;;;5077104;28;46567;-72
2023/06/23 07:23:52;;;;;;;;;16.67;16.00;;;;;;;;5077181;28;45678;-73
2023/06/23 07:26:17;;;;;;;;;21.33;19.33;;;;;;;;5076731;28;45640;-72
2023/06/23 07:28:42;;;;;;;;;18.33;17.67;;;;;;;;5076590;28;45421;-72
2023/06/23 07:31:08;;;;;;;;;21.00;20.67;;;;;;;;5058501;28;46948;-72
2023/06/23 07:33:33;;;;;;;;;12.67;12.67;;;;;;;;5058453;28;48495;-73
2023/06/23 07:35:58;;;;;;;;;14.33;14.33;;;;;;;;5077535;28;45485;-73
2023/06/23 07:38:23;;;;;;;;;17.33;16.33;;;;;;;;5076699;28;45531;-72
2023/06/23 07:40:48;;;;;;;;;16.00;15.67;;;;;;;;5077224;28;45280;-72
2023/06/23 07:43:14;;;;;;;;;15.00;14.33;;;;;;;;5076478;28;45378;-72
2023/06/23 07:45:39;;;;;;;;;19.67;16.67;;;;;;;;5058434;28;45330;-72
2023/06/23 07:48:04;;;;;;;;;15.00;15.00;;;;;;;;5076972;28;45355;-73
2023/06/23 07:50:29;;;;;;;;;17.00;16.00;;;;;;;;5076906;28;45410;-73
2023/06/23 07:52:55;;;;;;;;;13.33;13.00;;;;;;;;5056576;28;47117;-73
2023/06/23 07:55:20;;;;;;;;;12.33;12.33;;;;;;;;5057059;28;45449;-72
2023/06/23 07:57:45;;;;;;;;;15.00;14.33;;;;;;;;5075299;28;45568;-73
2023/06/23 08:00:11;;;;;;;;;13.00;13.00;;;;;;;;5056586;28;45915;-73
2023/06/23 08:02:36;;;;;;;;;17.67;15.00;;;;;;;;5076071;28;45470;-73
2023/06/23 08:05:01;;;;;;;;;15.67;15.00;;;;;;;;5076035;28;45719;-73
2023/06/23 08:07:26;;;;;;;;;16.33;15.00;;;;;;;;5076482;28;45659;-73
2023/06/23 08:09:52;;;;;;;;;14.33;14.33;;;;;;;;5076343;28;46394;-73
2023/06/23 08:12:17;;;;;;;;;16.00;16.00;;;;;;;;5075723;28;46125;-73
2023/06/23 08:14:42;;;;;;;;;14.67;12.33;;;;;;;;5076322;28;45362;-73
2023/06/23 08:17:07;;;;;;;;;14.67;14.33;;;;;;;;5076049;28;45517;-72
2023/06/23 08:19:32;;;;;;;;;14.00;13.00;;;;;;;;5076094;28;45390;-72
2023/06/23 08:21:58;;;;;;;;;12.67;12.67;;;;;;;;5076290;28;46125;-72
2023/06/23 08:24:23;;;;;;;;;12.00;12.00;;;;;;;;5055938;28;45465;-72
2023/06/23 08:26:48;;;;;;;;;14.33;13.33;;;;;;;;5056371;27;45540;-73
2023/06/23 08:29:14;;;;;;;;;13.67;13.67;;;;;;;;5055403;28;46309;-73
2023/06/23 08:31:39;;;;;;;;;12.33;11.00;;;;;;;;5057620;28;47285;-72
2023/06/23 08:34:04;;;;;;;;;16.33;15.00;;;;;;;;5076090;28;45331;-73
2023/06/23 08:36:29;;;;;;;;;15.67;14.67;;;;;;;;5076541;28;45431;-73
2023/06/23 08:38:55;;;;;;;;;13.67;11.67;;;;;;;;5075912;28;45398;-72
2023/06/23 08:41:24;;;;;;;;;12.00;12.00;;;;;;;;5075217;28;45546;-74
2023/06/23 08:43:52;;;;;;;;;11.33;10.67;;;;;;;;5075352;28;45302;-72
2023/06/23 08:46:18;;;;;;;;;13.67;13.00;;;;;;;;5075223;28;45502;-73
2023/06/23 08:48:45;;;;;;;;;13.00;13.00;;;;;;;;5075752;28;45487;-73
2023/06/23 08:51:10;;;;;;;;;15.00;12.33;;;;;;;;5057168;28;48412;-73
2023/06/23 08:53:35;;;;;;;;;12.33;12.33;;;;;;;;5073648;28;45782;-73
2023/06/23 08:56:01;;;;;;;;;12.33;12.00;;;;;;;;5076335;28;45706;-72
2023/06/23 08:58:26;;;;;;;;;13.00;11.67;;;;;;;;5075777;28;45402;-73
2023/06/23 09:00:52;;;;;;;;;12.00;12.00;;;;;;;;5057285;28;46891;-73
2023/06/23 09:03:19;;;;;;;;;12.00;11.67;;;;;;;;5075376;27;45417;-73
2023/06/23 09:05:44;;;;;;;;;11.67;10.33;;;;;;;;5075917;28;45481;-73
2023/06/23 09:08:10;;;;;;;;;12.33;11.67;;;;;;;;5071458;28;45427;-74
2023/06/23 09:10:35;;;;;;;;;14.00;13.33;;;;;;;;5075800;28;46736;-75
2023/06/23 09:13:07;;;;;;;;;10.33;10.33;;;;;;;;5075753;28;45282;-73
2023/06/23 09:15:32;;;;;;;;;12.67;11.67;;;;;;;;5074947;28;45524;-73
2023/06/23 09:17:58;;;;;;;;;12.33;11.33;;;;;;;;5077439;28;45457;-74
2023/06/23 09:20:23;;;;;;;;;13.67;13.67;;;;;;;;5060124;28;48352;-73
2023/06/23 09:22:49;;;;;;;;;13.33;13.33;;;;;;;;5078837;28;45483;-74
2023/06/23 09:25:33;;;;;;;;;13.00;12.33;;;;;;;;5077090;28;45320;-74
2023/06/23 09:27:58;;;;;;;;;12.67;11.00;;;;;;;;5053354;28;45791;-73
2023/06/23 09:30:33;;;;;;;;;11.00;11.00;;;;;;;;5077818;27;46298;-74
2023/06/23 09:32:59;;;;;;;;;14.00;12.00;;;;;;;;5058104;28;45855;-73
2023/06/23 09:35:24;;;;;;;;;12.00;12.00;;;;;;;;5076134;28;45501;-75
2023/06/23 09:37:49;;;;;;;;;12.33;12.33;;;;;;;;5076765;28;45571;-74
2023/06/23 09:40:15;;;;;;;;;10.67;10.67;;;;;;;;5059487;28;48288;-75
2023/06/23 09:42:42;;;;;;;;;11.67;11.00;;;;;;;;5077377;28;45531;-74
2023/06/23 09:45:16;;;;;;;;;12.67;11.00;;;;;;;;5076701;28;45442;-74
2023/06/23 09:47:41;;;;;;;;;16.33;16.00;;;;;;;;5058451;28;47286;-74
2023/06/23 09:50:13;;;;;;;;;12.67;12.67;;;;;;;;5059231;28;46966;-74
2023/06/23 09:52:38;;;;;;;;;12.67;12.67;;;;;;;;5075740;28;45362;-74
2023/06/23 09:55:05;;;;;;;;;12.00;12.00;;;;;;;;5078159;28;45362;-74
2023/06/23 09:57:30;;;;;;;;;13.33;13.00;;;;;;;;5078352;28;45332;-74
2023/06/23 09:59:57;;;;;;;;;13.00;13.00;;;;;;;;5078398;28;46350;-74
2023/06/23 10:02:26;;;;;;;;;10.67;10.67;;;;;;;;5059809;28;46374;-74
2023/06/23 10:05:18;;;;;;;;;13.00;13.00;;;;;;;;5060335;28;45448;-75
2023/06/23 10:07:43;;;;;;;;;13.67;13.00;;;;;;;;5075936;28;45428;-71
2023/06/23 10:10:08;;;;;;;;;10.67;10.67;;;;;;;;5080939;28;45650;-72
2023/06/23 10:12:34;;;;;;;;;13.33;13.33;;;;;;;;5063209;28;45769;-72
2023/06/23 10:14:59;;;;;;;;;13.33;12.33;;;;;;;;5081860;28;45350;-72
2023/06/23 10:17:25;;;;;;;;;14.33;13.33;;;;;;;;5081565;28;45251;-72
2023/06/23 10:19:51;;;;;;;;;11.00;10.67;;;;;;;;5081092;28;45409;-73
2023/06/23 10:22:18;;;;;;;;;13.00;13.00;;;;;;;;5080428;28;45425;-73
2023/06/23 10:24:44;;;;;;;;;11.33;11.33;;;;;;;;5080540;28;45450;-72
2023/06/23 10:27:10;;;;;;;;;10.33;9.00;;;;;;;;5081271;28;45452;-73
2023/06/23 10:29:38;;;;;;;;;11.25;11.25;;;;;;;;5080511;28;45270;-72
2023/06/23 10:32:05;;;;;;;;;10.67;10.67;;;;;;;;5081384;28;45276;-73
2023/06/23 10:34:31;;;;;;;;;9.67;9.67;;;;;;;;5081294;28;45449;-72
2023/06/23 10:36:59;;;;;;;;;8.75;8.75;;;;;;;;5062623;28;45331;-73
2023/06/23 10:39:26;;;;;;;;;9.00;9.00;;;;;;;;5080657;28;45376;-73
2023/06/23 10:41:52;;;;;;;;;10.00;10.00;;;;;;;;5062401;28;45605;-72
2023/06/23 10:44:18;;;;;;;;;11.00;11.00;;;;;;;;5080725;28;45362;-72
2023/06/23 10:46:43;;;;;;;;;11.00;11.00;;;;;;;;5080803;28;45330;-72
2023/06/23 10:49:09;;;;;;;;;10.75;10.75;;;;;;;;5081068;28;45294;-72
2023/06/23 10:51:36;;;;;;;;;11.50;11.50;;;;;;;;5078511;28;45350;-73
2023/06/23 10:54:05;;;;;;;;;8.00;8.00;;;;;;;;5075140;28;45351;-72
2023/06/23 10:56:37;;;;;;;;;10.00;10.00;;;;;;;;5071784;28;45489;-73
2023/06/23 10:59:17;;;;;;;;;13.33;13.33;;;;;;;;5069894;28;45347;-72
2023/06/23 11:02:00;;;;;;;;;11.33;11.33;;;;;;;;5069991;28;45514;-73
2023/06/23 11:04:26;;;;;;;;;9.00;9.00;;;;;;;;5069811;28;45327;-72
2023/06/23 11:07:00;;;;;;;;;9.75;8.50;;;;;;;;5070833;28;45406;-73
2023/06/23 11:09:39;;;;;;;;;10.00;10.00;;;;;;;;5040577;28;46138;-73
2023/06/23 11:12:23;;;;;;;;;8.75;8.75;;;;;;;;5077047;28;45463;-72
2023/06/23 11:14:48;;;;;;;;;9.50;8.50;;;;;;;;5077090;28;45375;-73
2023/06/23 11:17:13;;;;;;;;;10.25;10.25;;;;;;;;5077398;28;45437;-73
2023/06/23 11:19:39;;;;;;;;;11.67;11.67;;;;;;;;5058875;28;47192;-75
2023/06/23 11:22:07;;;;;;;;;11.25;11.25;;;;;;;;5077290;28;45569;-74
2023/06/23 11:24:33;;;;;;;;;10.00;10.00;;;;;;;;5077519;28;45331;-74
2023/06/23 11:27:02;;;;;;;;;10.00;10.00;;;;;;;;5078138;28;45365;-74
2023/06/23 11:29:27;;;;;;;;;11.25;10.00;;;;;;;;5078593;27;46072;-74
2023/06/23 11:32:05;;;;;;;;;9.75;9.00;;;;;;;;5077891;28;45332;-73
2023/06/23 11:34:47;;;;;;;;;8.75;8.75;;;;;;;;5074394;28;45358;-73
2023/06/23 11:37:12;;;;;;;;;9.50;9.50;;;;;;;;5075956;28;45431;-74
2023/06/23 11:39:37;;;;;;;;;10.00;9.75;;;;;;;;5071925;28;46005;-74
2023/06/23 11:42:03;;;;;;;;;11.75;10.75;;;;;;;;5058910;28;45670;-73
2023/06/23 11:44:28;;;;;;;;;10.75;10.75;;;;;;;;5058764;28;46385;-73
2023/06/23 11:46:54;;;;;;;;;16.00;14.33;;;;;;;;5077520;28;46371;-73
2023/06/23 11:49:19;;;;;;;;;13.75;11.75;;;;;;;;5076770;28;45421;-73
2023/06/23 11:51:44;;;;;;;;;12.25;12.25;;;;;;;;5058317;28;45337;-74
2023/06/23 11:54:09;;;;;;;;;15.00;14.67;;;;;;;;5076561;28;45623;-73
2023/06/23 11:56:35;;;;;;;;;13.00;11.75;;;;;;;;5076391;28;45398;-74
2023/06/23 11:59:01;;;;;;;;;16.67;15.00;;;;;;;;5077317;28;46524;-73
2023/06/23 12:01:26;;;;;;;;;10.75;10.75;;;;;;;;5056349;28;46245;-75
2023/06/23 12:03:55;;;;;;;;;11.75;11.25;;;;;;;;5077646;28;45390;-74
2023/06/23 12:06:22;;;;;;;;;12.00;12.00;;;;;;;;5076821;28;45509;-73
2023/06/23 12:08:51;;;;;;;;;9.67;9.67;;;;;;;;5077417;28;47550;-74
2023/06/23 12:11:17;;;;;;;;;13.67;11.67;;;;;;;;5078074;28;46225;-75
2023/06/23 12:13:43;;;;;;;;;8.50;7.50;;;;;;;;5058339;28;45411;-74
2023/06/23 12:16:08;;;;;;;;;11.00;11.00;;;;;;;;5076704;28;45774;-73
2023/06/23 12:18:42;;;;;;;;;12.00;11.50;;;;;;;;5058366;28;47257;-72
2023/06/23 12:21:07;;;;;;;;;10.50;10.50;;;;;;;;5076851;28;45508;-72
2023/06/23 12:23:32;;;;;;;;;10.67;10.67;;;;;;;;5076893;28;45287;-73
2023/06/23 12:25:58;;;;;;;;;10.00;10.00;;;;;;;;5058768;28;46052;-72
2023/06/23 12:28:26;;;;;;;;;7.50;7.50;;;;;;;;5077466;28;47108;-73
2023/06/23 12:30:52;;;;;;;;;9.25;9.25;;;;;;;;5077303;28;45362;-73
2023/06/23 12:33:38;;;;;;;;;13.00;12.33;;;;;;;;5076378;28;45396;-72
2023/06/23 12:36:04;;;;;;;;;10.00;10.00;;;;;;;;5076310;28;45324;-71
2023/06/23 12:38:33;;;;;;;;;12.00;11.67;;;;;;;;5072522;28;46111;-72
2023/06/23 12:41:17;;;;;;;;;12.00;11.67;;;;;;;;5081255;28;46243;-74
2023/06/23 12:43:43;;;;;;;;;15.00;13.00;;;;;;;;5060465;28;45488;-72
2023/06/23 12:46:11;;;;;;;;;11.00;10.00;;;;;;;;5076212;28;45855;-72
2023/06/23 12:48:38;;;;;;;;;11.00;9.00;;;;;;;;5075883;28;45751;-72
2023/06/23 12:51:03;;;;;;;;;8.75;8.25;;;;;;;;5076973;28;45450;-72
2023/06/23 12:53:28;;;;;;;;;13.00;11.25;;;;;;;;5060955;28;45355;-72
2023/06/23 12:55:54;;;;;;;;;13.00;11.50;;;;;;;;5079833;28;45592;-72
2023/06/23 12:58:19;;;;;;;;;7.25;7.00;;;;;;;;5080083;28;45451;-72
2023/06/23 13:00:44;;;;;;;;;12.25;9.50;;;;;;;;5079707;28;45531;-72
2023/06/23 13:03:14;;;;;;;;;8.50;8.50;;;;;;;;5080177;28;45453;-73
2023/06/23 13:05:40;;;;;;;;;10.00;10.00;;;;;;;;5079390;28;45411;-71
2023/06/23 13:08:05;;;;;;;;;10.67;10.67;;;;;;;;5079750;28;46009;-72
2023/06/23 13:10:30;;;;;;;;;9.50;8.50;;;;;;;;5079609;28;45649;-73
2023/06/23 13:12:56;;;;;;;;;8.25;8.25;;;;;;;;5062362;28;45430;-71
2023/06/23 13:15:21;;;;;;;;;8.25;8.25;;;;;;;;5062458;28;45548;-73
2023/06/23 13:17:46;;;;;;;;;10.00;10.00;;;;;;;;5061388;28;46180;-73
2023/06/23 13:20:11;;;;;;;;;9.00;9.00;;;;;;;;5080176;28;45453;-73
2023/06/23 13:22:37;;;;;;;;;6.00;6.00;;;;;;;;5079429;28;45300;-73
2023/06/23 13:25:02;;;;;;;;;10.00;10.00;;;;;;;;5078029;28;45272;-73
2023/06/23 13:27:27;;;;;;;;;11.67;9.00;;;;;;;;5077027;28;47472;-72
2023/06/23 13:29:53;;;;;;;;;9.67;9.67;;;;;;;;5079380;28;46333;-73
2023/06/23 13:32:18;;;;;;;;;8.25;8.00;;;;;;;;5060631;28;45463;-71
2023/06/23 13:34:44;;;;;;;;;10.00;10.00;;;;;;;;5078270;28;45531;-72
2023/06/23 13:37:09;;;;;;;;;6.67;6.67;;;;;;;;5078353;28;46227;-71
2023/06/23 13:39:34;;;;;;;;;8.25;8.00;;;;;;;;5078215;28;45381;-72
2023/06/23 13:42:00;;;;;;;;;7.00;7.00;;;;;;;;5060206;28;45370;-72
2023/06/23 13:44:25;;;;;;;;;10.00;10.00;;;;;;;;5078951;28;45454;-72
2023/06/23 13:46:50;;;;;;;;;9.00;9.00;;;;;;;;5078832;28;46668;-72
2023/06/23 13:49:16;;;;;;;;;5.50;5.50;;;;;;;;5059916;28;45413;-72
2023/06/23 13:51:41;;;;;;;;;8.00;7.25;;;;;;;;5078670;28;45522;-72
2023/06/23 13:54:06;;;;;;;;;7.00;6.75;;;;;;;;5078765;28;46317;-73
2023/06/23 13:56:32;;;;;;;;;7.00;7.00;;;;;;;;5078838;28;45524;-71
2023/06/23 13:58:57;;;;;;;;;7.75;7.75;;;;;;;;5079279;28;45386;-72
2023/06/23 14:01:22;;;;;;;;;7.25;7.25;;;;;;;;5079242;28;45379;-73
2023/06/23 14:03:51;;;;;;;;;7.00;7.00;;;;;;;;5077166;28;46708;-73
2023/06/23 14:06:20;;;;;;;;;11.25;8.50;;;;;;;;5078294;28;45338;-72
2023/06/23 14:08:46;;;;;;;;;9.00;8.75;;;;;;;;5059165;28;45419;-73
2023/06/23 14:11:11;;;;;;;;;12.00;12.00;;;;;;;;5079317;28;45571;-73
2023/06/23 14:13:36;;;;;;;;;8.25;8.25;;;;;;;;5060292;28;46217;-72
2023/06/23 14:16:01;;;;;;;;;9.25;9.25;;;;;;;;5079191;28;46107;-72
2023/06/23 14:18:27;;;;;;;;;10.75;9.50;;;;;;;;5077296;28;45485;-72
2023/06/23 14:20:52;;;;;;;;;8.75;7.75;;;;;;;;5078923;28;45452;-72